sensor_id;sensor_type;location;lat;lon;timestamp;temperature;humidity
12967;DHT22;6548;49.996;8.238;2022-09-09T00:00:53;15.50;99.90
12967;DHT22;6548;49.996;8.238;2022-09-09T00:03:24;16.80;99.90
12967;DHT22;6548;49.996;8.238;2022-09-09T00:06:27;16.70;99.90
12967;DHT22;6548;49.996;8.238;2022-09-09T00:09:16;15.30;99.90
12967;DHT22;6548;49.996;8.238;2022-09-09T00:11:43;14.60;99.90
12967;DHT22;6548;49.996;8.238;2022-09-09T00:14:31;15.10;99.90
12967;DHT22;6548;49.996;8.238;2022-09-09T00:17:04;15.10;99.90
12967;DHT22;6548;49.996;8.238;2022-09-09T00:19:54;15.00;99.90
12967;DHT22;6548;49.996;8.238;2022-09-09T00:22:23;15.00;99.90
12967;DHT22;6548;49.996;8.238;2022-09-09T00:24:53;14.90;99.90
12967;DHT22;6548;49.996;8.238;2022-09-09T00:27:33;14.90;99.90
12967;DHT22;6548;49.996;8.238;2022-09-09T00:30:19;14.80;99.90
12967;DHT22;6548;49.996;8.238;2022-09-09T00:32:49;14.80;99.90
12967;DHT22;6548;49.996;8.238;2022-09-09T00:37:45;14.70;99.90
12967;DHT22;6548;49.996;8.238;2022-09-09T00:40:24;14.70;99.90
12967;DHT22;6548;49.996;8.238;2022-09-09T00:48:13;14.70;99.90
12967;DHT22;6548;49.996;8.238;2022-09-09T00:50:57;14.60;99.90
12967;DHT22;6548;49.996;8.238;2022-09-09T00:56:21;14.50;99.90
12967;DHT22;6548;49.996;8.238;2022-09-09T01:01:38;14.60;99.90
12967;DHT22;6548;49.996;8.238;2022-09-09T01:04:09;14.90;99.90
12967;DHT22;6548;49.996;8.238;2022-09-09T01:06:41;15.20;99.90
12967;DHT22;6548;49.996;8.238;2022-09-09T01:11:59;15.00;99.90
12967;DHT22;6548;49.996;8.238;2022-09-09T01:14:41;14.70;99.90
12967;DHT22;6548;49.996;8.238;2022-09-09T01:17:19;14.70;99.90
12967;DHT22;6548;49.996;8.238;2022-09-09T01:19:57;14.60;99.90
12967;DHT22;6548;49.996;8.238;2022-09-09T01:22:40;14.90;99.90
12967;DHT22;6548;49.996;8.238;2022-09-09T01:26:04;14.50;99.90
12967;DHT22;6548;49.996;8.238;2022-09-09T01:28:12;14.40;99.90
12967;DHT22;6548;49.996;8.238;2022-09-09T01:30:40;14.40;99.90
12967;DHT22;6548;49.996;8.238;2022-09-09T01:33:13;14.30;99.90
12967;DHT22;6548;49.996;8.238;2022-09-09T01:36:02;14.30;99.90
12967;DHT22;6548;49.996;8.238;2022-09-09T01:38:31;14.30;99.90
12967;DHT22;6548;49.996;8.238;2022-09-09T01:40:58;14.30;99.90
12967;DHT22;6548;49.996;8.238;2022-09-09T01:43:25;14.40;99.90
12967;DHT22;6548;49.996;8.238;2022-09-09T01:45:53;14.30;99.90
12967;DHT22;6548;49.996;8.238;2022-09-09T01:48:21;14.30;99.90
12967;DHT22;6548;49.996;8.238;2022-09-09T01:50:47;14.20;99.90
12967;DHT22;6548;49.996;8.238;2022-09-09T01:53:17;14.40;99.90
12967;DHT22;6548;49.996;8.238;2022-09-09T02:00:48;14.20;99.90
12967;DHT22;6548;49.996;8.238;2022-09-09T02:08:49;14.00;99.90
12967;DHT22;6548;49.996;8.238;2022-09-09T02:11:16;14.00;99.90
12967;DHT22;6548;49.996;8.238;2022-09-09T02:13:48;14.00;99.90
12967;DHT22;6548;49.996;8.238;2022-09-09T02:16:42;14.00;99.90
12967;DHT22;6548;49.996;8.238;2022-09-09T02:19:22;14.00;99.90
12967;DHT22;6548;49.996;8.238;2022-09-09T02:21:52;14.00;99.90
12967;DHT22;6548;49.996;8.238;2022-09-09T02:24:20;14.10;99.90
12967;DHT22;6548;49.996;8.238;2022-09-09T02:26:49;14.20;99.90
12967;DHT22;6548;49.996;8.238;2022-09-09T02:29:26;14.30;99.90
12967;DHT22;6548;49.996;8.238;2022-09-09T02:31:53;14.30;99.90
12967;DHT22;6548;49.996;8.238;2022-09-09T02:34:22;14.20;99.90
12967;DHT22;6548;49.996;8.238;2022-09-09T02:36:51;14.20;99.90
12967;DHT22;6548;49.996;8.238;2022-09-09T02:39:19;14.50;99.90
12967;DHT22;6548;49.996;8.238;2022-09-09T02:41:44;14.00;99.90
12967;DHT22;6548;49.996;8.238;2022-09-09T02:44:15;13.90;99.90
12967;DHT22;6548;49.996;8.238;2022-09-09T02:46:53;13.90;99.90
12967;DHT22;6548;49.996;8.238;2022-09-09T02:55:09;14.00;99.90
12967;DHT22;6548;49.996;8.238;2022-09-09T02:57:37;14.00;99.90
12967;DHT22;6548;49.996;8.238;2022-09-09T03:00:04;14.00;99.90
12967;DHT22;6548;49.996;8.238;2022-09-09T03:02:29;14.00;99.90
12967;DHT22;6548;49.996;8.238;2022-09-09T03:04:55;14.30;99.90
12967;DHT22;6548;49.996;8.238;2022-09-09T03:07:21;14.00;99.90
12967;DHT22;6548;49.996;8.238;2022-09-09T03:09:47;15.20;99.90
12967;DHT22;6548;49.996;8.238;2022-09-09T03:12:13;15.00;99.90
12967;DHT22;6548;49.996;8.238;2022-09-09T03:14:39;13.80;99.90
12967;DHT22;6548;49.996;8.238;2022-09-09T03:17:05;14.50;99.90
12967;DHT22;6548;49.996;8.238;2022-09-09T03:19:31;14.10;99.90
12967;DHT22;6548;49.996;8.238;2022-09-09T03:22:00;13.80;99.90
12967;DHT22;6548;49.996;8.238;2022-09-09T03:24:26;14.80;99.90
12967;DHT22;6548;49.996;8.238;2022-09-09T03:26:51;15.40;99.90
12967;DHT22;6548;49.996;8.238;2022-09-09T03:29:17;13.90;99.90
12967;DHT22;6548;49.996;8.238;2022-09-09T03:31:44;14.30;99.90
12967;DHT22;6548;49.996;8.238;2022-09-09T03:34:10;14.50;99.90
12967;DHT22;6548;49.996;8.238;2022-09-09T03:36:36;15.20;99.90
12967;DHT22;6548;49.996;8.238;2022-09-09T03:39:02;13.90;99.90
12967;DHT22;6548;49.996;8.238;2022-09-09T03:41:29;15.20;99.90
12967;DHT22;6548;49.996;8.238;2022-09-09T03:43:54;15.40;99.90
12967;DHT22;6548;49.996;8.238;2022-09-09T03:46:21;14.20;99.90
12967;DHT22;6548;49.996;8.238;2022-09-09T03:48:47;14.70;99.90
12967;DHT22;6548;49.996;8.238;2022-09-09T03:51:13;14.90;99.90
12967;DHT22;6548;49.996;8.238;2022-09-09T03:53:39;13.70;99.90
12967;DHT22;6548;49.996;8.238;2022-09-09T03:56:05;15.00;99.90
12967;DHT22;6548;49.996;8.238;2022-09-09T03:58:36;13.80;99.90
12967;DHT22;6548;49.996;8.238;2022-09-09T04:01:03;13.90;99.90
12967;DHT22;6548;49.996;8.238;2022-09-09T04:03:29;14.40;99.90
12967;DHT22;6548;49.996;8.238;2022-09-09T04:05:56;14.30;99.90
12967;DHT22;6548;49.996;8.238;2022-09-09T04:08:22;14.00;99.90
12967;DHT22;6548;49.996;8.238;2022-09-09T04:10:50;15.10;99.90
12967;DHT22;6548;49.996;8.238;2022-09-09T04:13:17;15.20;99.90
12967;DHT22;6548;49.996;8.238;2022-09-09T04:15:44;14.50;99.90
12967;DHT22;6548;49.996;8.238;2022-09-09T04:18:10;14.90;99.90
12967;DHT22;6548;49.996;8.238;2022-09-09T04:20:37;15.20;99.90
12967;DHT22;6548;49.996;8.238;2022-09-09T04:23:03;14.50;99.90
12967;DHT22;6548;49.996;8.238;2022-09-09T04:25:28;15.10;99.90
12967;DHT22;6548;49.996;8.238;2022-09-09T04:27:55;14.90;99.90
12967;DHT22;6548;49.996;8.238;2022-09-09T04:30:21;14.10;99.90
12967;DHT22;6548;49.996;8.238;2022-09-09T04:32:47;15.40;99.90
12967;DHT22;6548;49.996;8.238;2022-09-09T04:35:13;14.00;99.90
12967;DHT22;6548;49.996;8.238;2022-09-09T04:37:38;14.80;99.90
12967;DHT22;6548;49.996;8.238;2022-09-09T04:40:05;13.80;99.90
12967;DHT22;6548;49.996;8.238;2022-09-09T04:42:38;14.00;99.90
12967;DHT22;6548;49.996;8.238;2022-09-09T04:45:05;14.50;99.90
12967;DHT22;6548;49.996;8.238;2022-09-09T04:47:30;14.00;99.90
12967;DHT22;6548;49.996;8.238;2022-09-09T04:49:56;15.40;99.90
12967;DHT22;6548;49.996;8.238;2022-09-09T04:52:22;14.80;99.90
12967;DHT22;6548;49.996;8.238;2022-09-09T04:54:47;13.90;99.90
12967;DHT22;6548;49.996;8.238;2022-09-09T04:57:13;14.70;99.90
12967;DHT22;6548;49.996;8.238;2022-09-09T04:59:39;14.00;99.90
12967;DHT22;6548;49.996;8.238;2022-09-09T05:02:05;14.90;99.90
12967;DHT22;6548;49.996;8.238;2022-09-09T05:04:31;14.10;99.90
12967;DHT22;6548;49.996;8.238;2022-09-09T05:06:56;14.10;99.90
12967;DHT22;6548;49.996;8.238;2022-09-09T05:09:22;15.40;99.90
12967;DHT22;6548;49.996;8.238;2022-09-09T05:11:48;14.10;99.90
12967;DHT22;6548;49.996;8.238;2022-09-09T05:14:14;14.20;99.90
12967;DHT22;6548;49.996;8.238;2022-09-09T05:16:44;14.70;99.90
12967;DHT22;6548;49.996;8.238;2022-09-09T05:19:10;14.20;99.90
12967;DHT22;6548;49.996;8.238;2022-09-09T05:21:37;14.40;99.90
12967;DHT22;6548;49.996;8.238;2022-09-09T05:24:02;14.40;99.90
12967;DHT22;6548;49.996;8.238;2022-09-09T05:26:28;14.50;99.90
12967;DHT22;6548;49.996;8.238;2022-09-09T05:28:57;14.20;99.90
12967;DHT22;6548;49.996;8.238;2022-09-09T05:31:24;14.70;99.90
12967;DHT22;6548;49.996;8.238;2022-09-09T05:33:53;14.60;99.90
12967;DHT22;6548;49.996;8.238;2022-09-09T05:36:20;15.00;99.90
12967;DHT22;6548;49.996;8.238;2022-09-09T05:38:46;15.20;99.90
12967;DHT22;6548;49.996;8.238;2022-09-09T05:41:16;14.90;99.90
12967;DHT22;6548;49.996;8.238;2022-09-09T05:43:43;15.80;99.90
12967;DHT22;6548;49.996;8.238;2022-09-09T05:46:21;14.60;99.90
12967;DHT22;6548;49.996;8.238;2022-09-09T05:48:53;14.60;99.90
12967;DHT22;6548;49.996;8.238;2022-09-09T05:54:27;15.40;99.90
12967;DHT22;6548;49.996;8.238;2022-09-09T05:57:03;14.80;99.90
12967;DHT22;6548;49.996;8.238;2022-09-09T05:59:30;14.90;99.90
12967;DHT22;6548;49.996;8.238;2022-09-09T06:01:57;16.30;99.90
12967;DHT22;6548;49.996;8.238;2022-09-09T06:04:23;15.20;99.90
12967;DHT22;6548;49.996;8.238;2022-09-09T06:06:50;15.20;99.90
12967;DHT22;6548;49.996;8.238;2022-09-09T06:09:15;16.80;99.90
12967;DHT22;6548;49.996;8.238;2022-09-09T06:11:42;15.50;99.90
12967;DHT22;6548;49.996;8.238;2022-09-09T06:14:08;15.70;99.90
12967;DHT22;6548;49.996;8.238;2022-09-09T06:16:34;15.50;99.90
12967;DHT22;6548;49.996;8.238;2022-09-09T06:19:01;17.10;99.90
12967;DHT22;6548;49.996;8.238;2022-09-09T06:21:33;16.20;99.90
12967;DHT22;6548;49.996;8.238;2022-09-09T06:24:00;17.70;99.90
12967;DHT22;6548;49.996;8.238;2022-09-09T06:26:37;16.50;99.90
12967;DHT22;6548;49.996;8.238;2022-09-09T06:29:03;16.60;99.90
12967;DHT22;6548;49.996;8.238;2022-09-09T06:31:30;17.40;99.90
12967;DHT22;6548;49.996;8.238;2022-09-09T06:33:57;17.00;99.90
12967;DHT22;6548;49.996;8.238;2022-09-09T06:36:35;18.40;99.90
12967;DHT22;6548;49.996;8.238;2022-09-09T06:39:02;16.90;99.90
12967;DHT22;6548;49.996;8.238;2022-09-09T06:41:29;16.90;99.90
12967;DHT22;6548;49.996;8.238;2022-09-09T06:43:55;18.30;99.90
12967;DHT22;6548;49.996;8.238;2022-09-09T06:46:23;16.80;99.90
12967;DHT22;6548;49.996;8.238;2022-09-09T06:48:49;16.80;99.90
12967;DHT22;6548;49.996;8.238;2022-09-09T06:51:16;18.10;99.90
12967;DHT22;6548;49.996;8.238;2022-09-09T06:53:44;18.20;99.90
12967;DHT22;6548;49.996;8.238;2022-09-09T06:58:39;17.20;99.90
12967;DHT22;6548;49.996;8.238;2022-09-09T07:01:08;16.80;99.90
12967;DHT22;6548;49.996;8.238;2022-09-09T07:03:34;16.60;99.90
12967;DHT22;6548;49.996;8.238;2022-09-09T07:06:00;16.80;99.90
12967;DHT22;6548;49.996;8.238;2022-09-09T07:08:26;16.80;99.90
12967;DHT22;6548;49.996;8.238;2022-09-09T07:10:52;18.20;99.90
12967;DHT22;6548;49.996;8.238;2022-09-09T07:13:25;16.90;99.90
12967;DHT22;6548;49.996;8.238;2022-09-09T07:15:52;16.80;99.90
12967;DHT22;6548;49.996;8.238;2022-09-09T07:18:21;17.60;99.90
12967;DHT22;6548;49.996;8.238;2022-09-09T07:20:53;17.40;99.90
12967;DHT22;6548;49.996;8.238;2022-09-09T07:23:20;17.60;99.90
12967;DHT22;6548;49.996;8.238;2022-09-09T07:25:45;17.90;99.90
12967;DHT22;6548;49.996;8.238;2022-09-09T07:28:11;18.20;99.90
12967;DHT22;6548;49.996;8.238;2022-09-09T07:30:37;19.00;99.90
12967;DHT22;6548;49.996;8.238;2022-09-09T07:33:02;18.80;99.90
12967;DHT22;6548;49.996;8.238;2022-09-09T07:35:28;18.90;99.90
12967;DHT22;6548;49.996;8.238;2022-09-09T07:37:54;19.10;99.90
12967;DHT22;6548;49.996;8.238;2022-09-09T07:40:20;19.00;99.90
12967;DHT22;6548;49.996;8.238;2022-09-09T07:42:47;19.30;99.90
12967;DHT22;6548;49.996;8.238;2022-09-09T07:45:13;19.30;99.90
12967;DHT22;6548;49.996;8.238;2022-09-09T07:47:39;19.30;99.90
12967;DHT22;6548;49.996;8.238;2022-09-09T07:50:09;19.50;99.90
12967;DHT22;6548;49.996;8.238;2022-09-09T07:52:35;19.60;99.90
12967;DHT22;6548;49.996;8.238;2022-09-09T07:55:00;19.80;99.90
12967;DHT22;6548;49.996;8.238;2022-09-09T07:57:28;19.80;99.90
12967;DHT22;6548;49.996;8.238;2022-09-09T07:59:56;19.40;99.90
12967;DHT22;6548;49.996;8.238;2022-09-09T08:02:23;19.40;99.90
12967;DHT22;6548;49.996;8.238;2022-09-09T08:04:49;19.20;99.90
12967;DHT22;6548;49.996;8.238;2022-09-09T08:07:15;19.60;99.90
12967;DHT22;6548;49.996;8.238;2022-09-09T08:09:41;19.30;99.90
12967;DHT22;6548;49.996;8.238;2022-09-09T08:12:07;19.10;99.90
12967;DHT22;6548;49.996;8.238;2022-09-09T08:14:34;19.10;99.90
12967;DHT22;6548;49.996;8.238;2022-09-09T08:17:00;19.10;99.90
12967;DHT22;6548;49.996;8.238;2022-09-09T08:19:25;19.00;99.90
12967;DHT22;6548;49.996;8.238;2022-09-09T08:21:51;18.90;99.90
12967;DHT22;6548;49.996;8.238;2022-09-09T08:24:17;19.00;99.90
12967;DHT22;6548;49.996;8.238;2022-09-09T08:26:46;19.00;99.90
12967;DHT22;6548;49.996;8.238;2022-09-09T08:29:15;18.90;99.90
12967;DHT22;6548;49.996;8.238;2022-09-09T08:31:44;18.90;99.90
12967;DHT22;6548;49.996;8.238;2022-09-09T08:34:10;19.30;99.90
12967;DHT22;6548;49.996;8.238;2022-09-09T08:36:42;19.10;99.90
12967;DHT22;6548;49.996;8.238;2022-09-09T08:39:08;19.20;99.90
12967;DHT22;6548;49.996;8.238;2022-09-09T08:47:25;19.30;99.90
12967;DHT22;6548;49.996;8.238;2022-09-09T08:50:28;19.30;99.90
12967;DHT22;6548;49.996;8.238;2022-09-09T08:55:33;19.20;99.90
12967;DHT22;6548;49.996;8.238;2022-09-09T09:09:46;19.40;99.90
12967;DHT22;6548;49.996;8.238;2022-09-09T09:12:25;19.40;99.90
12967;DHT22;6548;49.996;8.238;2022-09-09T09:14:52;19.50;99.90
12967;DHT22;6548;49.996;8.238;2022-09-09T09:17:19;19.60;99.90
12967;DHT22;6548;49.996;8.238;2022-09-09T09:19:47;19.80;99.90
12967;DHT22;6548;49.996;8.238;2022-09-09T09:25:09;20.30;99.90
12967;DHT22;6548;49.996;8.238;2022-09-09T09:27:48;20.00;99.90
12967;DHT22;6548;49.996;8.238;2022-09-09T09:30:17;19.90;99.90
12967;DHT22;6548;49.996;8.238;2022-09-09T09:35:19;19.90;99.90
12967;DHT22;6548;49.996;8.238;2022-09-09T09:37:45;20.20;99.90
12967;DHT22;6548;49.996;8.238;2022-09-09T09:40:19;20.40;99.90
12967;DHT22;6548;49.996;8.238;2022-09-09T09:43:00;20.40;99.90
12967;DHT22;6548;49.996;8.238;2022-09-09T09:45:34;20.40;99.90
12967;DHT22;6548;49.996;8.238;2022-09-09T09:48:09;20.20;99.90
12967;DHT22;6548;49.996;8.238;2022-09-09T09:50:50;20.20;99.90
12967;DHT22;6548;49.996;8.238;2022-09-09T09:53:25;20.20;99.90
12967;DHT22;6548;49.996;8.238;2022-09-09T09:56:04;20.20;99.90
12967;DHT22;6548;49.996;8.238;2022-09-09T09:58:48;21.00;99.90
12967;DHT22;6548;49.996;8.238;2022-09-09T10:01:34;21.60;99.90
12967;DHT22;6548;49.996;8.238;2022-09-09T10:04:01;21.30;99.90
12967;DHT22;6548;49.996;8.238;2022-09-09T10:06:35;21.10;99.90
12967;DHT22;6548;49.996;8.238;2022-09-09T10:09:03;20.90;99.90
12967;DHT22;6548;49.996;8.238;2022-09-09T10:11:59;20.80;99.90
12967;DHT22;6548;49.996;8.238;2022-09-09T10:14:49;20.90;99.90
12967;DHT22;6548;49.996;8.238;2022-09-09T10:17:41;21.10;99.90
12967;DHT22;6548;49.996;8.238;2022-09-09T10:23:25;20.60;99.90
12967;DHT22;6548;49.996;8.238;2022-09-09T10:40:45;22.80;99.90
12967;DHT22;6548;49.996;8.238;2022-09-09T10:46:10;22.20;99.90
12967;DHT22;6548;49.996;8.238;2022-09-09T10:49:11;22.30;99.90
12967;DHT22;6548;49.996;8.238;2022-09-09T10:57:24;22.60;99.90
12967;DHT22;6548;49.996;8.238;2022-09-09T10:59:55;22.40;99.90
12967;DHT22;6548;49.996;8.238;2022-09-09T11:02:28;22.70;99.90
12967;DHT22;6548;49.996;8.238;2022-09-09T11:04:58;22.80;99.90
12967;DHT22;6548;49.996;8.238;2022-09-09T11:07:41;22.90;99.90
12967;DHT22;6548;49.996;8.238;2022-09-09T11:11:01;22.80;99.90
12967;DHT22;6548;49.996;8.238;2022-09-09T11:13:20;23.40;99.90
12967;DHT22;6548;49.996;8.238;2022-09-09T11:15:53;23.60;99.90
12967;DHT22;6548;49.996;8.238;2022-09-09T11:18:21;23.90;99.90
12967;DHT22;6548;49.996;8.238;2022-09-09T11:20:54;24.10;99.90
12967;DHT22;6548;49.996;8.238;2022-09-09T11:23:27;24.20;99.90
12967;DHT22;6548;49.996;8.238;2022-09-09T11:26:00;23.80;99.90
12967;DHT22;6548;49.996;8.238;2022-09-09T11:28:54;24.00;99.90
12967;DHT22;6548;49.996;8.238;2022-09-09T11:36:56;23.50;99.90
12967;DHT22;6548;49.996;8.238;2022-09-09T11:42:22;22.80;99.90
12967;DHT22;6548;49.996;8.238;2022-09-09T11:44:49;22.40;99.90
12967;DHT22;6548;49.996;8.238;2022-09-09T11:47:27;22.70;99.90
12967;DHT22;6548;49.996;8.238;2022-09-09T11:52:46;22.00;99.90
12967;DHT22;6548;49.996;8.238;2022-09-09T11:55:35;21.80;99.90
12967;DHT22;6548;49.996;8.238;2022-09-09T11:58:02;21.60;99.90
12967;DHT22;6548;49.996;8.238;2022-09-09T12:00:37;21.60;99.90
12967;DHT22;6548;49.996;8.238;2022-09-09T12:03:40;21.70;99.90
12967;DHT22;6548;49.996;8.238;2022-09-09T12:06:26;21.40;99.90
12967;DHT22;6548;49.996;8.238;2022-09-09T12:09:05;21.20;99.90
12967;DHT22;6548;49.996;8.238;2022-09-09T12:11:31;21.00;99.90
12967;DHT22;6548;49.996;8.238;2022-09-09T12:13:59;20.30;99.90
12967;DHT22;6548;49.996;8.238;2022-09-09T12:16:33;20.00;99.90
12967;DHT22;6548;49.996;8.238;2022-09-09T12:21:54;19.80;99.90
12967;DHT22;6548;49.996;8.238;2022-09-09T12:24:42;19.90;99.90
12967;DHT22;6548;49.996;8.238;2022-09-09T12:27:31;19.90;99.90
12967;DHT22;6548;49.996;8.238;2022-09-09T12:30:12;19.80;99.90
12967;DHT22;6548;49.996;8.238;2022-09-09T12:32:39;19.60;99.90
12967;DHT22;6548;49.996;8.238;2022-09-09T12:35:20;19.40;99.90
12967;DHT22;6548;49.996;8.238;2022-09-09T12:37:50;19.20;99.90
12967;DHT22;6548;49.996;8.238;2022-09-09T12:40:27;19.30;99.90
12967;DHT22;6548;49.996;8.238;2022-09-09T12:42:53;19.50;99.90
12967;DHT22;6548;49.996;8.238;2022-09-09T12:45:23;19.50;99.90
12967;DHT22;6548;49.996;8.238;2022-09-09T12:48:09;21.30;99.90
12967;DHT22;6548;49.996;8.238;2022-09-09T12:50:59;20.50;99.90
12967;DHT22;6548;49.996;8.238;2022-09-09T12:53:37;20.00;99.90
12967;DHT22;6548;49.996;8.238;2022-09-09T12:56:07;21.10;99.90
12967;DHT22;6548;49.996;8.238;2022-09-09T12:58:35;21.80;99.90
12967;DHT22;6548;49.996;8.238;2022-09-09T13:01:03;21.50;99.90
12967;DHT22;6548;49.996;8.238;2022-09-09T13:03:42;21.90;99.90
12967;DHT22;6548;49.996;8.238;2022-09-09T13:06:28;22.20;99.90
12967;DHT22;6548;49.996;8.238;2022-09-09T13:08:56;22.10;99.90
12967;DHT22;6548;49.996;8.238;2022-09-09T13:11:41;22.40;99.90
12967;DHT22;6548;49.996;8.238;2022-09-09T13:14:21;22.20;99.90
12967;DHT22;6548;49.996;8.238;2022-09-09T13:16:59;22.30;99.90
12967;DHT22;6548;49.996;8.238;2022-09-09T13:19:26;22.40;99.90
12967;DHT22;6548;49.996;8.238;2022-09-09T13:21:54;22.50;99.90
12967;DHT22;6548;49.996;8.238;2022-09-09T13:24:34;23.00;99.90
12967;DHT22;6548;49.996;8.238;2022-09-09T13:27:18;22.40;99.90
12967;DHT22;6548;49.996;8.238;2022-09-09T13:29:51;22.80;99.90
12967;DHT22;6548;49.996;8.238;2022-09-09T13:32:21;23.00;99.90
12967;DHT22;6548;49.996;8.238;2022-09-09T13:34:56;22.80;99.90
12967;DHT22;6548;49.996;8.238;2022-09-09T13:37:37;21.70;99.90
12967;DHT22;6548;49.996;8.238;2022-09-09T13:40:05;21.30;99.90
12967;DHT22;6548;49.996;8.238;2022-09-09T13:42:33;21.00;99.90
12967;DHT22;6548;49.996;8.238;2022-09-09T13:45:00;20.90;99.90
12967;DHT22;6548;49.996;8.238;2022-09-09T13:47:33;20.60;99.90
12967;DHT22;6548;49.996;8.238;2022-09-09T13:50:20;20.30;99.90
12967;DHT22;6548;49.996;8.238;2022-09-09T13:52:50;20.10;99.90
12967;DHT22;6548;49.996;8.238;2022-09-09T13:55:18;20.80;99.90
12967;DHT22;6548;49.996;8.238;2022-09-09T13:58:05;20.30;99.90
12967;DHT22;6548;49.996;8.238;2022-09-09T14:00:56;20.40;99.90
12967;DHT22;6548;49.996;8.238;2022-09-09T14:03:22;19.60;99.90
12967;DHT22;6548;49.996;8.238;2022-09-09T14:05:48;19.60;99.90
12967;DHT22;6548;49.996;8.238;2022-09-09T14:08:26;19.50;99.90
12967;DHT22;6548;49.996;8.238;2022-09-09T14:10:51;19.30;99.90
12967;DHT22;6548;49.996;8.238;2022-09-09T14:13:17;19.60;99.90
12967;DHT22;6548;49.996;8.238;2022-09-09T14:15:43;18.50;99.90
12967;DHT22;6548;49.996;8.238;2022-09-09T14:18:11;18.70;99.90
12967;DHT22;6548;49.996;8.238;2022-09-09T14:20:40;18.30;99.90
12967;DHT22;6548;49.996;8.238;2022-09-09T14:23:10;18.40;99.90
12967;DHT22;6548;49.996;8.238;2022-09-09T14:25:36;18.50;99.90
12967;DHT22;6548;49.996;8.238;2022-09-09T14:28:01;18.50;99.90
12967;DHT22;6548;49.996;8.238;2022-09-09T14:30:27;18.60;99.90
12967;DHT22;6548;49.996;8.238;2022-09-09T14:32:53;18.70;99.90
12967;DHT22;6548;49.996;8.238;2022-09-09T14:35:18;18.70;99.90
12967;DHT22;6548;49.996;8.238;2022-09-09T14:37:44;18.80;99.90
12967;DHT22;6548;49.996;8.238;2022-09-09T14:40:10;18.80;99.90
12967;DHT22;6548;49.996;8.238;2022-09-09T14:42:36;18.80;99.90
12967;DHT22;6548;49.996;8.238;2022-09-09T14:45:02;18.80;99.90
12967;DHT22;6548;49.996;8.238;2022-09-09T14:47:28;18.70;99.90
12967;DHT22;6548;49.996;8.238;2022-09-09T14:49:54;18.50;99.90
12967;DHT22;6548;49.996;8.238;2022-09-09T14:52:20;18.30;99.90
12967;DHT22;6548;49.996;8.238;2022-09-09T14:54:46;18.30;99.90
12967;DHT22;6548;49.996;8.238;2022-09-09T14:57:12;19.10;99.90
12967;DHT22;6548;49.996;8.238;2022-09-09T14:59:37;18.50;99.90
12967;DHT22;6548;49.996;8.238;2022-09-09T15:02:07;18.60;99.90
12967;DHT22;6548;49.996;8.238;2022-09-09T15:04:33;18.90;99.90
12967;DHT22;6548;49.996;8.238;2022-09-09T15:06:59;19.10;99.90
12967;DHT22;6548;49.996;8.238;2022-09-09T15:09:24;19.60;99.90
12967;DHT22;6548;49.996;8.238;2022-09-09T15:11:50;20.20;99.90
12967;DHT22;6548;49.996;8.238;2022-09-09T15:14:15;20.50;99.90
12967;DHT22;6548;49.996;8.238;2022-09-09T15:16:50;20.80;99.90
12967;DHT22;6548;49.996;8.238;2022-09-09T15:19:19;21.00;99.90
12967;DHT22;6548;49.996;8.238;2022-09-09T15:21:44;21.60;99.90
12967;DHT22;6548;49.996;8.238;2022-09-09T15:24:10;20.90;99.90
12967;DHT22;6548;49.996;8.238;2022-09-09T15:26:37;20.70;99.90
12967;DHT22;6548;49.996;8.238;2022-09-09T15:29:03;20.50;99.90
12967;DHT22;6548;49.996;8.238;2022-09-09T15:31:30;20.20;99.90
12967;DHT22;6548;49.996;8.238;2022-09-09T15:33:58;20.10;99.90
12967;DHT22;6548;49.996;8.238;2022-09-09T15:36:40;20.00;99.90
12967;DHT22;6548;49.996;8.238;2022-09-09T15:39:09;20.10;99.90
12967;DHT22;6548;49.996;8.238;2022-09-09T15:41:38;20.00;99.90
12967;DHT22;6548;49.996;8.238;2022-09-09T15:44:04;19.90;99.90
12967;DHT22;6548;49.996;8.238;2022-09-09T15:46:38;19.70;99.90
12967;DHT22;6548;49.996;8.238;2022-09-09T15:49:17;19.90;99.90
12967;DHT22;6548;49.996;8.238;2022-09-09T15:52:18;19.50;99.90
12967;DHT22;6548;49.996;8.238;2022-09-09T15:54:37;19.40;99.90
12967;DHT22;6548;49.996;8.238;2022-09-09T15:57:07;19.30;99.90
12967;DHT22;6548;49.996;8.238;2022-09-09T15:59:34;19.20;99.90
12967;DHT22;6548;49.996;8.238;2022-09-09T16:02:00;19.10;99.90
12967;DHT22;6548;49.996;8.238;2022-09-09T16:04:27;19.60;99.90
12967;DHT22;6548;49.996;8.238;2022-09-09T16:06:57;19.10;99.90
12967;DHT22;6548;49.996;8.238;2022-09-09T16:09:24;19.20;99.90
12967;DHT22;6548;49.996;8.238;2022-09-09T16:11:50;19.20;99.90
12967;DHT22;6548;49.996;8.238;2022-09-09T16:14:16;19.20;99.90
12967;DHT22;6548;49.996;8.238;2022-09-09T16:16:42;19.30;99.90
12967;DHT22;6548;49.996;8.238;2022-09-09T16:19:10;19.20;99.90
12967;DHT22;6548;49.996;8.238;2022-09-09T16:21:39;19.20;99.90
12967;DHT22;6548;49.996;8.238;2022-09-09T16:24:06;19.20;99.90
12967;DHT22;6548;49.996;8.238;2022-09-09T16:26:34;19.10;99.90
12967;DHT22;6548;49.996;8.238;2022-09-09T16:29:01;19.10;99.90
12967;DHT22;6548;49.996;8.238;2022-09-09T16:31:28;19.10;99.90
12967;DHT22;6548;49.996;8.238;2022-09-09T16:33:54;18.90;99.90
12967;DHT22;6548;49.996;8.238;2022-09-09T16:36:22;18.80;99.90
12967;DHT22;6548;49.996;8.238;2022-09-09T16:38:51;18.80;99.90
12967;DHT22;6548;49.996;8.238;2022-09-09T16:41:17;19.90;99.90
12967;DHT22;6548;49.996;8.238;2022-09-09T16:43:42;18.80;99.90
12967;DHT22;6548;49.996;8.238;2022-09-09T16:46:16;18.70;99.90
12967;DHT22;6548;49.996;8.238;2022-09-09T16:48:43;18.60;99.90
12967;DHT22;6548;49.996;8.238;2022-09-09T16:51:15;18.30;99.90
12967;DHT22;6548;49.996;8.238;2022-09-09T16:53:42;18.00;99.90
12967;DHT22;6548;49.996;8.238;2022-09-09T16:56:14;18.30;99.90
12967;DHT22;6548;49.996;8.238;2022-09-09T16:58:40;17.70;99.90
12967;DHT22;6548;49.996;8.238;2022-09-09T17:01:08;17.70;99.90
12967;DHT22;6548;49.996;8.238;2022-09-09T17:03:34;18.40;99.90
12967;DHT22;6548;49.996;8.238;2022-09-09T17:05:59;17.70;99.90
12967;DHT22;6548;49.996;8.238;2022-09-09T17:08:30;17.50;99.90
12967;DHT22;6548;49.996;8.238;2022-09-09T17:10:57;17.40;99.90
12967;DHT22;6548;49.996;8.238;2022-09-09T17:13:24;17.80;99.90
12967;DHT22;6548;49.996;8.238;2022-09-09T17:15:50;17.00;99.90
12967;DHT22;6548;49.996;8.238;2022-09-09T17:18:15;16.70;99.90
12967;DHT22;6548;49.996;8.238;2022-09-09T17:20:42;16.50;99.90
12967;DHT22;6548;49.996;8.238;2022-09-09T17:23:10;16.30;99.90
12967;DHT22;6548;49.996;8.238;2022-09-09T17:25:37;16.10;99.90
12967;DHT22;6548;49.996;8.238;2022-09-09T17:28:03;16.00;99.90
12967;DHT22;6548;49.996;8.238;2022-09-09T17:30:33;15.90;99.90
12967;DHT22;6548;49.996;8.238;2022-09-09T17:32:59;15.90;99.90
12967;DHT22;6548;49.996;8.238;2022-09-09T17:35:24;15.80;99.90
12967;DHT22;6548;49.996;8.238;2022-09-09T17:37:52;15.70;99.90
12967;DHT22;6548;49.996;8.238;2022-09-09T17:40:17;15.70;99.90
12967;DHT22;6548;49.996;8.238;2022-09-09T17:42:43;15.70;99.90
12967;DHT22;6548;49.996;8.238;2022-09-09T17:45:08;15.60;99.90
12967;DHT22;6548;49.996;8.238;2022-09-09T17:47:35;15.70;99.90
12967;DHT22;6548;49.996;8.238;2022-09-09T17:50:00;15.70;99.90